Time;durP1;ratioP1;P1;durP2;ratioP2;P2;SDS_P1;SDS_P2;PMS_P1;PMS_P2;Temp;Humidity;BMP_temperature;BMP_pressure;BME280_temperature;BME280_humidity;BME280_pressure;Samples;Min_cycle;Max_cycle;Signal;HPM_P1;HPM_P2
2022/11/30 00:00:01;;;;;;;82.30;41.00;;;;;;;5.95;100.00;102100.72;4990535;28;20026;-63
2022/11/30 00:02:29;;;;;;;84.97;42.25;;;;;;;5.94;100.00;102102.38;4990334;28;20115;-64
2022/11/30 00:04:54;;;;;;;79.40;40.63;;;;;;;5.95;100.00;102109.34;4990682;28;20045;-63
2022/11/30 00:07:19;;;;;;;78.03;38.33;;;;;;;5.94;100.00;102107.53;4989678;28;20034;-64
2022/11/30 00:09:44;;;;;;;81.72;42.03;;;;;;;5.94;100.00;102110.09;4989967;28;20085;-63
2022/11/30 00:12:10;;;;;;;76.80;39.75;;;;;;;5.95;100.00;102109.34;4990284;28;20042;-63
2022/11/30 00:14:35;;;;;;;81.05;40.78;;;;;;;5.95;100.00;102104.19;4990857;28;20167;-64
2022/11/30 00:17:00;;;;;;;79.43;39.30;;;;;;;5.95;100.00;102105.84;4989940;28;20042;-63
2022/11/30 00:19:25;;;;;;;72.32;36.95;;;;;;;5.95;100.00;102114.47;4990028;28;20635;-64
2022/11/30 00:21:51;;;;;;;82.60;40.75;;;;;;;5.94;100.00;102112.66;4990003;28;20042;-63
2022/11/30 00:24:16;;;;;;;67.07;36.65;;;;;;;5.96;100.00;102105.06;4990591;28;20109;-63
2022/11/30 00:26:41;;;;;;;72.07;36.55;;;;;;;5.95;100.00;102109.34;4990826;28;20034;-63
2022/11/30 00:29:06;;;;;;;65.35;37.53;;;;;;;5.95;100.00;102106.75;4990054;28;20026;-64
2022/11/30 00:31:32;;;;;;;63.00;36.67;;;;;;;5.96;100.00;102113.69;4989777;28;20022;-64
2022/11/30 00:33:57;;;;;;;65.72;32.72;;;;;;;5.97;100.00;102107.72;4990045;28;20034;-64
2022/11/30 00:36:22;;;;;;;67.57;34.40;;;;;;;5.97;100.00;102107.72;4989917;28;20034;-64
2022/11/30 00:38:49;;;;;;;71.70;34.53;;;;;;;5.98;100.00;102108.63;4990132;28;20104;-64
2022/11/30 00:41:15;;;;;;;63.47;34.03;;;;;;;5.98;100.00;102114.69;4989848;28;20023;-64
2022/11/30 00:43:41;;;;;;;61.55;33.15;;;;;;;5.99;100.00;102110.44;4989672;28;20053;-64
2022/11/30 00:46:10;;;;;;;63.45;34.15;;;;;;;5.98;100.00;102109.53;4976044;28;20050;-63
2022/11/30 00:48:36;;;;;;;62.72;31.45;;;;;;;6.00;100.00;102109.66;4989939;28;20117;-63
2022/11/30 00:51:02;;;;;;;62.78;34.22;;;;;;;5.99;100.00;102108.75;4987643;28;20034;-64
2022/11/30 00:53:27;;;;;;;62.45;33.53;;;;;;;5.99;100.00;102113.88;4989693;28;20434;-64
2022/11/30 00:55:53;;;;;;;60.55;32.17;;;;;;;6.00;100.00;102122.50;4989821;28;20038;-64
2022/11/30 00:58:18;;;;;;;57.28;30.73;;;;;;;5.98;100.00;102109.53;4989324;28;20129;-64
2022/11/30 01:00:44;;;;;;;63.30;32.85;;;;;;;5.99;100.00;102124.19;4987853;28;20372;-63
2022/11/30 01:03:10;;;;;;;69.40;33.58;;;;;;;5.99;100.00;102115.59;4988680;28;20481;-64
2022/11/30 01:05:36;;;;;;;58.67;30.15;;;;;;;5.99;100.00;102116.47;4975535;28;20031;-64
2022/11/30 01:08:03;;;;;;;55.05;31.25;;;;;;;6.00;100.00;102119.94;4988063;28;20157;-64
2022/11/30 01:10:29;;;;;;;62.08;31.00;;;;;;;6.00;100.00;102123.41;4987486;28;20489;-64
2022/11/30 01:12:54;;;;;;;58.33;32.65;;;;;;;6.00;100.00;102122.50;4988742;28;20149;-64
2022/11/30 01:15:20;;;;;;;63.63;32.78;;;;;;;6.00;100.00;102128.56;4987862;28;20539;-64
2022/11/30 01:17:45;;;;;;;52.65;29.88;;;;;;;6.00;100.00;102122.50;4988585;28;20030;-64
2022/11/30 01:20:11;;;;;;;58.40;30.55;;;;;;;5.99;100.00;102126.75;4988459;28;20036;-64
2022/11/30 01:22:36;;;;;;;54.95;30.80;;;;;;;5.99;100.00;102121.59;4988574;28;20037;-64
2022/11/30 01:25:03;;;;;;;55.97;31.40;;;;;;;6.00;100.00;102122.50;4987958;28;20142;-64
2022/11/30 01:27:28;;;;;;;54.03;29.45;;;;;;;6.00;100.00;102123.41;4975794;28;20249;-64
2022/11/30 01:29:53;;;;;;;54.05;31.73;;;;;;;5.99;100.00;102121.59;4988019;28;20117;-64
2022/11/30 01:32:18;;;;;;;50.65;29.35;;;;;;;5.98;100.00;102124.97;4987687;28;20109;-64
2022/11/30 01:34:44;;;;;;;55.70;30.23;;;;;;;5.98;100.00;102122.41;4987342;28;20117;-64
2022/11/30 01:37:09;;;;;;;51.55;28.98;;;;;;;5.96;100.00;102123.97;4987754;28;20030;-63
2022/11/30 01:39:34;;;;;;;57.58;30.80;;;;;;;5.97;100.00;102128.31;4987394;28;20382;-64
2022/11/30 01:42:00;;;;;;;56.03;31.25;;;;;;;5.97;100.00;102120.59;4987829;28;20038;-63
2022/11/30 01:44:26;;;;;;;50.83;27.23;;;;;;;5.95;100.00;102121.28;4987660;28;20050;-64
2022/11/30 01:46:59;;;;;;;51.08;28.33;;;;;;;5.95;100.00;102123.88;4988454;28;20038;-64
2022/11/30 01:49:29;;;;;;;49.85;28.50;;;;;;;5.95;100.00;102129.91;4987859;28;20109;-64
2022/11/30 01:52:17;;;;;;;46.80;27.90;;;;;;;5.93;100.00;102130.56;4988119;28;20113;-64
2022/11/30 01:54:50;;;;;;;45.67;28.70;;;;;;;5.91;100.00;102133.03;4987614;28;20026;-63
2022/11/30 01:57:35;;;;;;;50.65;28.00;;;;;;;5.92;100.00;102133.94;4986667;28;20097;-63
2022/11/30 02:00:06;;;;;;;43.58;26.60;;;;;;;5.91;100.00;102140.75;4987611;28;20105;-63
2022/11/30 02:02:45;;;;;;;51.30;29.65;;;;;;;5.90;100.00;102141.53;4975423;28;20496;-64
2022/11/30 02:05:11;;;;;;;45.25;28.23;;;;;;;5.91;100.00;102145.00;4976822;28;20031;-63
2022/11/30 02:07:38;;;;;;;46.35;28.88;;;;;;;5.91;100.00;102147.56;4986701;28;20026;-64
2022/11/30 02:10:03;;;;;;;42.17;25.88;;;;;;;5.89;100.00;102148.38;4988225;28;20035;-64
2022/11/30 02:12:44;;;;;;;46.53;27.23;;;;;;;5.88;100.00;102138.84;4979934;28;20022;-64
2022/11/30 02:15:20;;;;;;;45.17;26.92;;;;;;;5.90;100.00;102146.69;4982429;28;20041;-63
2022/11/30 02:17:55;;;;;;;45.42;26.73;;;;;;;5.90;100.00;102141.53;4974326;28;20505;-64
2022/11/30 02:20:52;;;;;;;38.95;25.55;;;;;;;5.91;100.00;102139.84;4987335;28;20101;-63
2022/11/30 02:23:37;;;;;;;42.65;26.30;;;;;;;5.91;100.00;102140.75;4987562;28;20030;-64
2022/11/30 02:26:18;;;;;;;42.17;26.23;;;;;;;5.91;100.00;102142.44;4984090;28;20117;-64
2022/11/30 02:29:05;;;;;;;41.78;26.88;;;;;;;5.89;100.00;102144.91;4987389;28;20034;-64
2022/11/30 02:31:39;;;;;;;39.05;24.85;;;;;;;5.91;100.00;102145.00;4987106;28;20596;-64
2022/11/30 02:34:08;;;;;;;42.58;24.92;;;;;;;5.90;100.00;102151.81;4987402;28;20080;-64
2022/11/30 02:36:34;;;;;;;40.65;26.10;;;;;;;5.90;100.00;102151.81;4987724;28;20038;-64
2022/11/30 02:39:00;;;;;;;38.72;25.05;;;;;;;5.89;100.00;102148.38;4987444;28;20030;-64
2022/11/30 02:41:25;;;;;;;38.50;25.33;;;;;;;5.89;100.00;102147.47;4987786;28;20030;-64
2022/11/30 02:43:50;;;;;;;39.47;25.30;;;;;;;5.89;100.00;102150.03;4986240;28;20455;-64
2022/11/30 02:46:34;;;;;;;38.42;24.45;;;;;;;5.88;100.00;102145.69;4987195;28;20065;-64
2022/11/30 02:49:15;;;;;;;33.40;22.98;;;;;;;5.88;100.00;102156.84;4981350;28;20128;-63
2022/11/30 02:51:42;;;;;;;40.28;24.85;;;;;;;5.88;100.00;102153.41;4987203;28;20030;-64
2022/11/30 02:54:08;;;;;;;32.58;23.42;;;;;;;5.87;100.00;102149.03;4987175;28;20034;-64
2022/11/30 02:56:33;;;;;;;32.38;22.58;;;;;;;5.86;100.00;102155.84;4987086;28;20117;-63
2022/11/30 02:58:59;;;;;;;32.45;22.13;;;;;;;5.87;100.00;102156.75;4987084;28;20014;-64
2022/11/30 03:01:24;;;;;;;33.30;22.88;;;;;;;5.86;100.00;102149.84;4987382;28;20032;-64
2022/11/30 03:03:50;;;;;;;32.45;22.05;;;;;;;5.85;100.00;102154.06;4986246;28;20106;-64
2022/11/30 03:06:15;;;;;;;32.35;22.08;;;;;;;5.85;100.00;102159.22;4987300;28;20432;-64
2022/11/30 03:08:40;;;;;;;31.33;22.25;;;;;;;5.86;100.00;102160.13;4987187;28;20019;-63
2022/11/30 03:11:05;;;;;;;29.92;21.52;;;;;;;5.85;100.00;102155.75;4987497;28;20027;-63
2022/11/30 03:13:33;;;;;;;27.88;21.20;;;;;;;5.85;100.00;102158.31;4987283;28;20022;-64
2022/11/30 03:16:05;;;;;;;30.90;21.50;;;;;;;5.85;100.00;102150.59;4986864;28;20478;-63
2022/11/30 03:18:31;;;;;;;33.95;22.52;;;;;;;5.85;100.00;102153.16;4986559;28;20081;-64
2022/11/30 03:20:57;;;;;;;28.60;20.77;;;;;;;5.86;100.00;102155.84;4986382;28;20034;-64
2022/11/30 03:23:22;;;;;;;35.45;22.35;;;;;;;5.86;100.00;102154.97;4984856;28;20102;-64
2022/11/30 03:25:47;;;;;;;29.70;21.00;;;;;;;5.86;100.00;102154.97;4986869;28;20065;-64
2022/11/30 03:28:13;;;;;;;33.13;22.60;;;;;;;5.86;100.00;102149.84;4986614;28;20089;-63
2022/11/30 03:30:38;;;;;;;30.95;20.92;;;;;;;5.85;100.00;102158.31;4978438;28;20027;-63
2022/11/30 03:33:03;;;;;;;32.55;20.98;;;;;;;5.83;100.00;102159.91;4988127;28;20122;-63
2022/11/30 03:35:28;;;;;;;31.17;22.08;;;;;;;5.83;100.00;102154.75;4990534;28;20030;-63
2022/11/30 03:37:54;;;;;;;33.25;22.15;;;;;;;5.82;100.00;102158.09;4990575;28;20537;-63
2022/11/30 03:40:19;;;;;;;31.98;21.80;;;;;;;5.82;100.00;102152.97;4989365;28;20248;-64
2022/11/30 03:42:44;;;;;;;30.50;22.42;;;;;;;5.81;100.00;102159.78;4990288;28;20026;-64
2022/11/30 03:45:10;;;;;;;29.52;21.98;;;;;;;5.80;100.00;102157.09;4990162;28;20043;-64
2022/11/30 03:47:35;;;;;;;31.55;21.80;;;;;;;5.78;100.00;102149.25;4990118;28;20523;-64
2022/11/30 03:50:01;;;;;;;29.45;21.60;;;;;;;5.75;100.00;102156.75;4990341;28;20386;-64
2022/11/30 03:52:26;;;;;;;29.60;20.13;;;;;;;5.72;100.00;102162.56;4990370;28;20030;-64
2022/11/30 03:54:51;;;;;;;29.88;20.00;;;;;;;5.70;100.00;102169.28;4990089;28;20076;-63
2022/11/30 03:57:16;;;;;;;31.88;21.85;;;;;;;5.68;100.00;102164.81;4990046;28;20010;-64
2022/11/30 03:59:42;;;;;;;27.95;20.05;;;;;;;5.65;100.00;102160.31;4989909;28;20029;-64
2022/11/30 04:02:07;;;;;;;26.50;20.67;;;;;;;5.66;100.00;102167.28;4989335;28;20414;-64
2022/11/30 04:04:32;;;;;;;30.70;19.92;;;;;;;5.64;100.00;102164.59;4990068;28;20125;-64
2022/11/30 04:06:58;;;;;;;29.48;21.63;;;;;;;5.62;100.00;102166.16;4989247;28;20470;-64
2022/11/30 04:09:23;;;;;;;28.20;20.88;;;;;;;5.63;100.00;102157.66;4990325;28;20030;-63
2022/11/30 04:11:48;;;;;;;34.05;21.05;;;;;;;5.61;100.00;102166.91;4988606;28;20101;-64
2022/11/30 04:14:13;;;;;;;29.05;20.48;;;;;;;5.61;100.00;102166.91;4990178;28;20435;-63
2022/11/30 04:16:39;;;;;;;30.25;20.63;;;;;;;5.59;100.00;102160.78;4988431;28;20023;-64
2022/11/30 04:19:04;;;;;;;29.90;22.48;;;;;;;5.59;100.00;102165.03;4989329;28;20616;-64
2022/11/30 04:21:29;;;;;;;27.98;21.00;;;;;;;5.57;100.00;102166.59;4989094;28;20022;-63
2022/11/30 04:23:55;;;;;;;28.25;20.77;;;;;;;5.56;100.00;102168.25;4989660;28;20475;-64
2022/11/30 04:26:20;;;;;;;29.10;20.73;;;;;;;5.56;100.00;102159.66;4989411;28;20036;-63
2022/11/30 04:28:45;;;;;;;31.65;21.25;;;;;;;5.55;100.00;102163.00;4989496;28;20054;-64
2022/11/30 04:31:11;;;;;;;30.70;21.60;;;;;;;5.53;100.00;102163.81;4988831;28;20039;-64
2022/11/30 04:33:37;;;;;;;30.40;20.25;;;;;;;5.53;100.00;102158.66;4989624;28;20022;-64
2022/11/30 04:36:04;;;;;;;29.38;20.98;;;;;;;5.55;100.00;102163.00;4988784;28;20034;-64
2022/11/30 04:38:30;;;;;;;31.20;20.80;;;;;;;5.55;100.00;102169.06;4989885;28;20019;-64
2022/11/30 04:40:55;;;;;;;29.80;22.58;;;;;;;5.56;100.00;102175.09;4988679;28;20077;-63
2022/11/30 04:43:21;;;;;;;31.40;21.33;;;;;;;5.55;100.00;102169.06;4988650;28;20026;-64
2022/11/30 04:45:47;;;;;;;28.98;20.58;;;;;;;5.56;100.00;102169.97;4988893;28;20720;-63
2022/11/30 04:48:13;;;;;;;29.67;20.92;;;;;;;5.56;100.00;102169.97;4980610;28;20126;-64
2022/11/30 04:50:38;;;;;;;31.40;21.40;;;;;;;5.55;100.00;102168.16;4985061;28;20065;-64
2022/11/30 04:53:04;;;;;;;27.90;20.48;;;;;;;5.56;100.00;102169.97;4988961;28;20229;-63
2022/11/30 04:55:29;;;;;;;32.47;20.85;;;;;;;5.56;100.00;102170.84;4975769;28;20027;-64
2022/11/30 04:57:55;;;;;;;35.30;21.88;;;;;;;5.55;100.00;102173.28;4989203;28;20026;-64
2022/11/30 05:00:21;;;;;;;29.25;20.58;;;;;;;5.52;100.00;102172.28;4987887;28;20045;-64
2022/11/30 05:02:46;;;;;;;32.35;21.77;;;;;;;5.50;100.00;102166.16;4981414;28;20223;-64
2022/11/30 05:05:12;;;;;;;31.42;22.38;;;;;;;5.49;100.00;102169.50;4985624;28;20432;-64
2022/11/30 05:07:37;;;;;;;25.73;19.80;;;;;;;5.48;100.00;102169.38;4989157;28;20036;-64
2022/11/30 05:10:04;;;;;;;28.00;19.75;;;;;;;5.45;100.00;102175.16;4987739;28;20033;-64
2022/11/30 05:12:30;;;;;;;26.75;20.10;;;;;;;5.44;100.00;102173.41;4989012;28;20022;-64
2022/11/30 05:14:55;;;;;;;28.30;19.50;;;;;;;5.41;100.00;102171.47;4988835;28;20463;-64
2022/11/30 05:17:20;;;;;;;24.88;18.88;;;;;;;5.40;100.00;102173.94;4988346;28;20113;-64
2022/11/30 05:19:45;;;;;;;26.73;19.60;;;;;;;5.37;100.00;102178.88;4988290;28;20450;-64
2022/11/30 05:22:11;;;;;;;32.22;19.95;;;;;;;5.33;100.00;102179.41;4988504;28;20101;-64
2022/11/30 05:24:36;;;;;;;27.27;18.83;;;;;;;5.29;100.00;102181.75;4988183;28;20050;-63
2022/11/30 05:27:01;;;;;;;27.45;19.75;;;;;;;5.27;100.00;102183.31;4988217;28;20040;-63
2022/11/30 05:29:27;;;;;;;27.65;19.55;;;;;;;5.24;100.00;102188.22;4987635;28;20109;-63
2022/11/30 05:31:52;;;;;;;26.83;18.65;;;;;;;5.23;100.00;102188.09;4983037;28;20030;-64
2022/11/30 05:34:17;;;;;;;25.80;19.15;;;;;;;5.20;100.00;102185.31;4987956;28;20018;-63
2022/11/30 05:36:42;;;;;;;25.57;19.60;;;;;;;5.18;100.00;102182.59;4988255;28;20438;-64
2022/11/30 05:39:08;;;;;;;31.27;21.00;;;;;;;5.18;100.00;102184.31;4988402;28;20014;-63
2022/11/30 05:41:33;;;;;;;29.58;20.63;;;;;;;5.18;100.00;102190.31;4984322;28;20101;-64
2022/11/30 05:43:59;;;;;;;29.80;20.50;;;;;;;5.19;100.00;102194.69;4987403;28;20057;-64
2022/11/30 05:46:24;;;;;;;28.17;21.30;;;;;;;5.18;100.00;102192.88;4988088;28;20313;-63
2022/11/30 05:48:49;;;;;;;28.17;19.88;;;;;;;5.17;100.00;102198.81;4988006;28;20084;-64
2022/11/30 05:51:17;;;;;;;26.90;19.80;;;;;;;5.17;100.00;102191.09;4987754;28;20019;-64
2022/11/30 05:53:44;;;;;;;26.98;19.42;;;;;;;5.16;100.00;102200.47;4987658;28;20049;-64
2022/11/30 05:56:13;;;;;;;24.50;18.70;;;;;;;5.14;100.00;102201.16;4988236;28;20175;-63
2022/11/30 05:58:39;;;;;;;24.23;19.25;;;;;;;5.14;100.00;102207.22;4987272;28;20496;-64
2022/11/30 06:01:05;;;;;;;29.92;21.73;;;;;;;5.15;100.00;102211.56;4988395;28;20030;-63
2022/11/30 06:03:31;;;;;;;33.03;20.67;;;;;;;5.18;100.00;102205.72;4987911;28;20105;-64
2022/11/30 06:05:57;;;;;;;30.10;19.83;;;;;;;5.19;100.00;102212.69;4987381;28;20038;-64
2022/11/30 06:08:23;;;;;;;27.90;20.63;;;;;;;5.19;100.00;102212.69;4987288;28;20521;-63
2022/11/30 06:10:48;;;;;;;28.30;20.58;;;;;;;5.20;100.00;102209.31;4987712;28;20069;-63
2022/11/30 06:13:14;;;;;;;27.88;20.05;;;;;;;5.19;100.00;102210.13;4987007;28;20046;-63
2022/11/30 06:15:40;;;;;;;28.25;20.85;;;;;;;5.20;100.00;102213.59;4987687;28;20097;-64
2022/11/30 06:18:07;;;;;;;27.70;20.23;;;;;;;5.19;100.00;102215.25;4984131;28;20185;-64
2022/11/30 06:20:33;;;;;;;29.10;20.42;;;;;;;5.17;100.00;102201.38;4987126;28;20052;-64
2022/11/30 06:22:58;;;;;;;25.17;19.35;;;;;;;5.15;100.00;102208.06;4987520;28;20026;-64
2022/11/30 06:25:25;;;;;;;26.13;20.10;;;;;;;5.16;100.00;102215.03;4987386;28;20033;-63
2022/11/30 06:27:50;;;;;;;29.67;20.13;;;;;;;5.15;100.00;102216.69;4986891;28;20546;-64
2022/11/30 06:30:16;;;;;;;27.05;21.42;;;;;;;5.15;100.00;102214.13;4986656;28;20049;-63
2022/11/30 06:32:44;;;;;;;28.80;21.25;;;;;;;5.15;100.00;102219.25;4984833;28;20072;-64
2022/11/30 06:35:09;;;;;;;29.27;20.60;;;;;;;5.16;100.00;102217.59;4987127;28;20030;-64
2022/11/30 06:37:35;;;;;;;31.40;20.83;;;;;;;5.16;100.00;102220.16;4979887;28;20351;-63
2022/11/30 06:40:00;;;;;;;29.52;21.88;;;;;;;5.16;100.00;102215.03;4986991;28;20037;-63
2022/11/30 06:42:28;;;;;;;31.13;22.52;;;;;;;5.15;100.00;102215.78;4986399;28;20361;-64
2022/11/30 06:44:54;;;;;;;34.13;22.80;;;;;;;5.15;100.00;102218.34;4978964;28;20120;-64
2022/11/30 06:47:19;;;;;;;29.38;20.63;;;;;;;5.16;100.00;102220.16;4986740;28;20041;-64
2022/11/30 06:49:44;;;;;;;33.63;22.70;;;;;;;5.15;100.00;102221.84;4987050;28;20034;-64
2022/11/30 06:52:09;;;;;;;28.35;21.15;;;;;;;5.14;100.00;102226.84;4980167;28;20085;-64
2022/11/30 06:54:35;;;;;;;31.30;22.30;;;;;;;5.13;100.00;102225.94;4983721;28;20026;-64
2022/11/30 06:57:00;;;;;;;34.75;22.67;;;;;;;5.14;100.00;102234.56;4983701;28;20030;-64
2022/11/30 06:59:25;;;;;;;30.67;20.60;;;;;;;5.12;100.00;102234.47;4984446;28;20026;-64
2022/11/30 07:01:50;;;;;;;31.85;21.73;;;;;;;5.12;100.00;102233.56;4974559;28;20026;-63
2022/11/30 07:04:16;;;;;;;26.23;20.23;;;;;;;5.11;100.00;102239.47;4977540;28;20033;-63
2022/11/30 07:06:42;;;;;;;30.80;21.92;;;;;;;5.10;100.00;102235.09;4978877;28;20019;-64
2022/11/30 07:09:09;;;;;;;30.30;21.33;;;;;;;5.12;100.00;102238.69;4985498;28;20040;-63
2022/11/30 07:11:34;;;;;;;31.98;22.45;;;;;;;5.11;100.00;102230.06;4987005;28;20116;-63
2022/11/30 07:14:00;;;;;;;33.53;22.85;;;;;;;5.12;100.00;102236.13;4984565;28;20022;-63
2022/11/30 07:16:25;;;;;;;35.35;23.65;;;;;;;5.12;100.00;102238.69;4982401;28;20034;-63
2022/11/30 07:18:50;;;;;;;33.45;22.67;;;;;;;5.13;100.00;102245.59;4982359;28;20554;-63
2022/11/30 07:21:15;;;;;;;33.20;22.30;;;;;;;5.13;100.00;102250.75;4981695;28;20030;-63
2022/11/30 07:26:25;;;;;;;29.13;21.30;;;;;;;5.14;100.00;102253.47;4979386;28;20038;-63
2022/11/30 07:28:56;;;;;;;32.33;21.30;;;;;;;5.13;100.00;102264.50;4987031;28;20026;-63
2022/11/30 07:31:26;;;;;;;30.63;22.90;;;;;;;5.14;100.00;102257.69;4986438;28;20026;-63
2022/11/30 07:33:51;;;;;;;26.95;21.73;;;;;;;5.14;100.00;102268.88;4987917;28;20432;-63
2022/11/30 07:36:19;;;;;;;29.55;21.13;;;;;;;5.13;100.00;102271.31;4987461;28;20077;-63
2022/11/30 07:38:45;;;;;;;34.28;21.77;;;;;;;5.12;100.00;102274.66;4986322;28;20081;-63
2022/11/30 07:41:11;;;;;;;27.80;20.42;;;;;;;5.11;100.00;102276.34;4988345;28;20049;-63
2022/11/30 07:43:36;;;;;;;29.25;21.83;;;;;;;5.11;100.00;102280.59;4988038;28;20045;-63
2022/11/30 07:46:03;;;;;;;28.80;21.40;;;;;;;5.12;100.00;102279.81;4987454;28;20402;-63
2022/11/30 07:48:28;;;;;;;29.75;20.77;;;;;;;5.13;100.00;102285.06;4988217;28;20026;-63
2022/11/30 07:50:54;;;;;;;29.75;22.15;;;;;;;5.14;100.00;102283.41;4986644;28;20509;-63
2022/11/30 07:53:19;;;;;;;31.00;22.50;;;;;;;5.15;100.00;102280.03;4988377;28;20034;-62
2022/11/30 07:55:44;;;;;;;31.30;22.38;;;;;;;5.17;100.00;102281.06;4983076;28;20037;-63
2022/11/30 07:58:10;;;;;;;30.80;22.98;;;;;;;5.19;100.00;102284.66;4985295;28;20053;-63
2022/11/30 08:00:36;;;;;;;40.50;24.15;;;;;;;5.22;100.00;102286.53;4973066;28;20080;-63
2022/11/30 08:03:02;;;;;;;34.03;23.42;;;;;;;5.24;100.00;102288.47;4987539;28;20549;-63
2022/11/30 08:05:28;;;;;;;34.30;22.17;;;;;;;5.26;100.00;102283.44;4982113;28;20100;-63
2022/11/30 08:07:53;;;;;;;31.52;22.70;;;;;;;5.28;100.00;102276.75;4979860;28;20037;-63
2022/11/30 08:10:20;;;;;;;33.17;23.38;;;;;;;5.30;100.00;102285.47;4988467;28;20383;-63
2022/11/30 08:12:46;;;;;;;34.88;24.65;;;;;;;5.35;100.00;102288.41;4978475;28;20037;-63
2022/11/30 08:15:11;;;;;;;34.58;24.20;;;;;;;5.37;100.00;102294.56;4981052;28;20433;-63
2022/11/30 08:17:36;;;;;;;32.70;24.23;;;;;;;5.40;100.00;102297.34;4984597;28;20038;-63
2022/11/30 08:20:02;;;;;;;33.17;24.05;;;;;;;5.42;100.00;102290.66;4985397;28;20023;-63
2022/11/30 08:22:27;;;;;;;32.40;24.67;;;;;;;5.45;100.00;102300.28;4984151;28;20053;-63
2022/11/30 08:24:53;;;;;;;34.67;24.98;;;;;;;5.45;100.00;102298.59;4988320;28;20038;-63
2022/11/30 08:27:18;;;;;;;33.25;25.08;;;;;;;5.48;100.00;102301.44;4989442;28;20097;-63
2022/11/30 08:29:44;;;;;;;33.53;24.90;;;;;;;5.51;100.00;102304.22;4984633;28;20022;-63
2022/11/30 08:32:09;;;;;;;30.55;22.63;;;;;;;5.51;100.00;102305.88;4986122;28;20113;-63
2022/11/30 08:34:34;;;;;;;33.00;24.00;;;;;;;5.51;100.00;102311.94;4977066;28;20458;-63
2022/11/30 08:36:59;;;;;;;31.65;24.27;;;;;;;5.51;100.00;102305.88;4982110;28;20109;-63
2022/11/30 08:39:27;;;;;;;36.50;24.58;;;;;;;5.51;100.00;102311.94;4985394;28;20104;-63
2022/11/30 08:41:52;;;;;;;35.05;26.00;;;;;;;5.50;100.00;102317.88;4978917;28;20026;-63
2022/11/30 08:44:18;;;;;;;34.88;25.63;;;;;;;5.51;100.00;102317.09;4986779;28;20537;-63
2022/11/30 08:46:43;;;;;;;34.80;25.05;;;;;;;5.53;100.00;102315.53;4985483;28;20036;-63
2022/11/30 08:49:09;;;;;;;32.03;23.63;;;;;;;5.53;100.00;102325.81;4982454;28;20387;-63
2022/11/30 08:51:34;;;;;;;31.02;23.27;;;;;;;5.53;100.00;102323.25;4987935;28;20037;-63
2022/11/30 08:53:59;;;;;;;31.00;24.00;;;;;;;5.51;100.00;102327.38;4985529;28;20049;-63
2022/11/30 08:56:25;;;;;;;30.67;22.90;;;;;;;5.45;100.00;102323.44;4982980;28;20378;-63
2022/11/30 08:58:50;;;;;;;31.45;23.65;;;;;;;5.40;100.00;102328.19;4987687;28;20026;-63
2022/11/30 09:01:21;;;;;;;29.85;22.77;;;;;;;5.35;100.00;102329.53;4975700;28;20022;-63
2022/11/30 09:03:48;;;;;;;30.40;22.65;;;;;;;5.31;100.00;102330.09;4986594;28;20045;-63
2022/11/30 09:06:19;;;;;;;30.90;23.20;;;;;;;5.29;100.00;102335.09;4984660;28;20479;-63
2022/11/30 09:08:47;;;;;;;32.22;22.90;;;;;;;5.28;100.00;102335.88;4978172;28;20058;-63
2022/11/30 09:11:13;;;;;;;30.90;22.73;;;;;;;5.27;100.00;102332.41;4988197;28;20093;-63
2022/11/30 09:13:40;;;;;;;28.85;22.20;;;;;;;5.28;100.00;102329.06;4979137;28;20026;-63
2022/11/30 09:16:06;;;;;;;29.65;22.88;;;;;;;5.31;100.00;102337.81;4987050;28;20570;-63
2022/11/30 09:18:32;;;;;;;33.25;24.45;;;;;;;5.31;100.00;102343.81;4985886;28;20030;-63
2022/11/30 09:21:03;;;;;;;30.10;23.75;;;;;;;5.34;100.00;102348.31;4986601;28;20799;-63
2022/11/30 09:23:28;;;;;;;;;;;;;;;5.35;100.00;102339.81;4987531;28;20033;-63
2022/11/30 09:25:58;;;;;;;33.38;24.05;;;;;;;5.38;100.00;102343.50;4988063;28;20357;-63
2022/11/30 09:28:24;;;;;;;34.05;25.23;;;;;;;5.39;100.00;102352.13;4986403;28;20486;-64
2022/11/30 09:30:50;;;;;;;32.25;24.00;;;;;;;5.40;100.00;102346.19;4987786;28;20026;-64
2022/11/30 09:33:15;;;;;;;35.30;25.20;;;;;;;5.40;100.00;102349.69;4987078;28;20014;-63
2022/11/30 09:35:41;;;;;;;33.70;25.60;;;;;;;5.42;100.00;102352.38;4987065;28;20044;-63
2022/11/30 09:38:06;;;;;;;37.38;26.65;;;;;;;5.45;100.00;102356.88;4985950;28;20045;-63
2022/11/30 09:40:33;;;;;;;34.72;25.23;;;;;;;5.47;100.00;102348.47;4988682;28;20023;-63
2022/11/30 09:43:27;;;;;;;35.33;27.40;;;;;;;5.51;100.00;102353.09;4986115;28;20687;-63
2022/11/30 09:45:56;;;;;;;40.53;27.77;;;;;;;5.53;100.00;102351.53;4985082;28;20105;-63
2022/11/30 09:48:27;;;;;;;40.17;28.92;;;;;;;5.58;100.00;102343.25;4985312;28;20026;-62
2022/11/30 09:50:53;;;;;;;40.13;28.42;;;;;;;5.62;100.00;102351.34;4986989;28;20318;-63
2022/11/30 09:53:25;;;;;;;38.13;27.70;;;;;;;5.68;100.00;102345.78;4985376;28;20286;-63
2022/11/30 09:55:52;;;;;;;46.47;31.65;;;;;;;5.73;100.00;102347.03;4986991;28;20474;-63
2022/11/30 09:58:45;;;;;;;45.47;31.83;;;;;;;5.76;100.00;102344.66;4983221;28;20026;-63
2022/11/30 10:01:16;;;;;;;45.00;30.52;;;;;;;5.82;100.00;102343.34;4984973;28;20026;-63
2022/11/30 10:03:41;;;;;;;43.25;30.00;;;;;;;5.86;100.00;102342.81;4985280;28;20389;-63
2022/11/30 10:06:45;;;;;;;40.92;29.15;;;;;;;5.89;100.00;102340.44;4986013;28;20041;-63
2022/11/30 10:09:19;;;;;;;36.67;28.35;;;;;;;5.93;100.00;102342.50;4983368;28;20022;-63
2022/11/30 10:11:58;;;;;;;40.67;28.17;;;;;;;5.97;100.00;102338.47;4985225;28;20030;-64
2022/11/30 10:14:58;;;;;;;45.78;29.80;;;;;;;6.00;100.00;102336.13;4983296;28;20450;-64
2022/11/30 10:17:46;;;;;;;35.58;27.42;;;;;;;6.04;100.00;102330.44;4984217;28;20041;-64
2022/11/30 10:20:38;;;;;;;38.80;27.40;;;;;;;6.08;100.00;102336.72;4985761;28;20068;-64
2022/11/30 10:23:12;;;;;;;38.72;27.83;;;;;;;6.10;100.00;102327.41;4984881;28;20458;-64
2022/11/30 10:26:08;;;;;;;36.95;27.45;;;;;;;6.13;100.00;102327.66;4986225;28;20479;-64
2022/11/30 10:28:47;;;;;;;42.40;28.83;;;;;;;6.16;100.00;102329.56;4985184;28;20510;-64
2022/11/30 10:31:14;;;;;;;37.33;28.23;;;;;;;6.19;100.00;102330.69;4987092;28;20037;-65
2022/11/30 10:33:45;;;;;;;40.53;29.17;;;;;;;6.21;100.00;102334.28;4986704;28;20478;-65
2022/11/30 10:36:34;;;;;;;38.53;28.60;;;;;;;6.23;100.00;102322.41;4980457;28;20467;-64
2022/11/30 10:39:03;;;;;;;41.38;28.88;;;;;;;6.27;100.00;102328.69;4985288;28;20081;-65
2022/11/30 10:41:34;;;;;;;37.38;27.30;;;;;;;6.30;100.00;102317.69;4990396;28;20049;-64
2022/11/30 10:44:31;;;;;;;40.03;28.33;;;;;;;6.32;100.00;102321.28;4989931;28;20295;-64
2022/11/30 10:47:03;;;;;;;34.17;25.40;;;;;;;6.35;100.00;102321.53;4962294;28;20046;-64
2022/11/30 10:49:30;;;;;;;39.65;27.48;;;;;;;6.38;100.00;102319.19;4989053;28;20037;-64
2022/11/30 10:52:07;;;;;;;32.78;24.98;;;;;;;6.39;100.00;102310.66;4986960;28;20042;-64
2022/11/30 10:54:35;;;;;;;32.03;25.15;;;;;;;6.42;100.00;102312.56;4986539;28;20031;-64
2022/11/30 10:57:03;;;;;;;31.75;23.85;;;;;;;6.43;100.00;102311.78;4990910;28;20466;-64
2022/11/30 10:59:40;;;;;;;31.85;23.98;;;;;;;6.46;100.00;102314.56;4989730;28;20030;-64
2022/11/30 11:02:44;;;;;;;28.70;22.70;;;;;;;6.52;100.00;102306.38;4990147;28;20034;-64
2022/11/30 11:05:25;;;;;;;32.65;23.27;;;;;;;6.54;100.00;102307.41;4978489;28;20033;-65
2022/11/30 11:07:57;;;;;;;29.70;23.23;;;;;;;6.56;100.00;102300.69;4987586;28;20030;-64
2022/11/30 11:10:44;;;;;;;27.23;22.27;;;;;;;6.66;100.00;102310.84;4980890;28;21522;-64
2022/11/30 11:13:37;;;;;;;25.42;21.45;;;;;;;6.72;100.00;102298.44;4987575;28;20475;-64
2022/11/30 11:16:04;;;;;;;27.45;21.02;;;;;;;6.76;100.00;102308.94;4989819;28;20062;-64